Time,TemperatureF,DewpointF,PressureIn,WindDirection,WindDirectionDegrees,WindSpeedMPH,WindSpeedGustMPH,Humidity,HourlyPrecipIn,Conditions,Clouds,dailyrainin,SolarRadiationWatts/m^2,SoftwareType,DateUTC
2013-05-16 00:00:00,48.4,41.5,29.60,SW,232,4.0,4.0,77,0.00,,SKC,0.04,0.00,VWS V14.01,2013-05-16 06:00:00,
2013-05-16 00:04:00,48.5,42.3,29.62,West,259,0.0,0.0,79,0.00,,SKC,0.00,0.00,VWS V14.01,2013-05-16 06:04:00,
2013-05-16 00:10:00,48.6,42.4,29.62,West,259,0.0,2.0,79,0.00,,SKC,0.00,0.00,VWS V14.01,2013-05-16 06:10:00,
2013-05-16 00:15:00,47.8,41.9,29.57,SW,222,3.0,5.0,80,0.00,,SKC,0.04,0.00,VWS V14.01,2013-05-16 06:15:00,
2013-05-16 00:16:00,48.6,42.4,29.62,West,259,0.0,2.0,79,0.00,,SKC,0.00,0.00,VWS V14.01,2013-05-16 06:16:00,
2013-05-16 00:21:00,48.6,42.7,29.62,West,259,0.0,1.0,80,0.00,,SKC,0.00,0.00,VWS V14.01,2013-05-16 06:21:00,
2013-05-16 00:27:00,48.6,42.7,29.61,West,259,0.0,1.0,80,0.00,,SKC,0.00,0.00,VWS V14.01,2013-05-16 06:27:00,
2013-05-16 00:30:00,48.2,42.3,29.59,SSE,150,0.0,4.0,80,0.00,,SKC,0.04,0.00,VWS V14.01,2013-05-16 06:30:00,
2013-05-16 00:33:00,48.6,42.7,29.61,West,259,0.0,3.0,80,0.00,,SKC,0.00,0.00,VWS V14.01,2013-05-16 06:33:00,
2013-05-16 00:39:00,48.5,42.6,29.61,West,259,0.0,3.0,80,0.00,,SKC,0.00,0.00,VWS V14.01,2013-05-16 06:39:00,
2013-05-16 00:45:00,48.3,42.1,29.62,West,259,4.0,4.0,79,0.00,,SKC,0.00,0.00,VWS V14.01,2013-05-16 06:45:00,
2013-05-16 00:51:00,47.9,41.7,29.61,SW,234,0.0,5.0,79,0.00,,SKC,0.00,0.00,VWS V14.01,2013-05-16 06:51:00,
2013-05-16 00:57:00,47.7,41.5,29.61,SW,234,0.0,5.0,79,0.00,,SKC,0.00,0.00,VWS V14.01,2013-05-16 06:57:00,
2013-05-16 01:00:00,48.5,42.3,29.58,West,259,0.0,4.0,79,0.00,,SKC,0.04,0.00,VWS V14.01,2013-05-16 07:00:00,
2013-05-16 01:03:00,47.3,41.5,29.61,SW,227,3.0,4.0,80,0.00,,SKC,0.00,0.00,VWS V14.01,2013-05-16 07:03:00,
2013-05-16 01:09:00,46.9,41.4,29.60,SSW,211,4.0,7.0,81,0.00,,SKC,0.00,0.00,VWS V14.01,2013-05-16 07:09:00,
2013-05-16 01:15:00,46.7,41.2,29.60,SSW,211,1.0,7.0,81,0.00,,SKC,0.00,0.00,VWS V14.01,2013-05-16 07:15:00,
2013-05-16 01:21:00,46.4,41.2,29.59,South,173,3.0,6.0,82,0.00,,SKC,0.00,0.00,VWS V14.01,2013-05-16 07:21:00,
2013-05-16 01:27:00,46.2,41.3,29.59,South,176,4.0,6.0,83,0.00,,SKC,0.00,0.00,VWS V14.01,2013-05-16 07:27:00,
2013-05-16 01:30:00,48.6,42.7,29.61,West,259,3.0,3.0,80,0.00,,SKC,0.00,0.00,VWS V14.01,2013-05-16 07:30:00,
2013-05-16 01:33:00,46.1,41.2,29.59,South,175,2.0,4.0,83,0.00,,SKC,0.00,0.00,VWS V14.01,2013-05-16 07:33:00,
2013-05-16 01:39:00,45.9,41.0,29.58,South,176,2.0,4.0,83,0.00,,SKC,0.00,0.00,VWS V14.01,2013-05-16 07:39:00,
2013-05-16 01:45:00,45.7,40.8,29.58,South,176,5.0,5.0,83,0.00,,SKC,0.00,0.00,VWS V14.01,2013-05-16 07:45:00,
2013-05-16 01:51:00,45.7,41.2,29.58,SSE,167,3.0,6.0,84,0.00,,SKC,0.00,0.00,VWS V14.01,2013-05-16 07:51:00,
2013-05-16 01:57:00,45.8,41.2,29.58,SSE,167,3.0,6.0,84,0.00,,SKC,0.00,0.00,VWS V14.01,2013-05-16 07:57:00,
2013-05-16 02:00:00,47.4,41.2,29.61,SW,227,3.0,5.0,79,0.00,,SKC,0.00,0.00,VWS V14.01,2013-05-16 08:00:00,
2013-05-16 02:03:00,45.8,41.2,29.54,South,172,2.0,5.0,84,0.00,,SKC,0.00,0.00,VWS V14.01,2013-05-16 08:03:00,
2013-05-16 02:09:00,45.8,40.9,29.54,South,172,2.0,5.0,83,0.00,,SKC,0.00,0.00,VWS V14.01,2013-05-16 08:09:00,
2013-05-16 02:15:00,45.8,40.9,29.54,South,172,2.0,5.0,83,0.00,,SKC,0.00,0.00,VWS V14.01,2013-05-16 08:15:00,
2013-05-16 02:21:00,45.8,40.9,29.54,South,172,4.0,4.0,83,0.00,,SKC,0.00,0.00,VWS V14.01,2013-05-16 08:21:00,
2013-05-16 02:27:00,45.7,40.8,29.54,South,175,2.0,5.0,83,0.00,,SKC,0.00,0.00,VWS V14.01,2013-05-16 08:27:00,
2013-05-16 02:30:00,46.1,41.2,29.59,South,176,3.0,6.0,83,0.00,,SKC,0.00,0.00,VWS V14.01,2013-05-16 08:30:00,
2013-05-16 02:33:00,45.6,40.4,29.54,South,175,4.0,4.0,82,0.00,,SKC,0.00,0.00,VWS V14.01,2013-05-16 08:33:00,
2013-05-16 02:39:00,45.6,40.7,29.53,South,175,3.0,6.0,83,0.00,,SKC,0.00,0.00,VWS V14.01,2013-05-16 08:39:00,
2013-05-16 02:45:00,45.7,40.8,29.53,South,175,3.0,6.0,83,0.00,,SKC,0.00,0.00,VWS V14.01,2013-05-16 08:45:00,
2013-05-16 02:51:00,45.7,40.5,29.53,South,175,0.0,3.0,82,0.00,,SKC,0.00,0.00,VWS V14.01,2013-05-16 08:51:00,
2013-05-16 02:57:00,45.6,40.4,29.53,South,175,2.0,3.0,82,0.00,,SKC,0.00,0.00,VWS V14.01,2013-05-16 08:57:00,
2013-05-16 03:00:00,45.8,41.2,29.58,SSE,167,4.0,6.0,84,0.00,,SKC,0.00,0.00,VWS V14.01,2013-05-16 09:00:00,
2013-05-16 03:03:00,45.2,40.0,29.57,South,176,3.0,4.0,82,0.00,,SKC,0.00,0.00,VWS V14.01,2013-05-16 09:03:00,
2013-05-16 03:09:00,45.0,40.2,29.57,South,176,0.0,4.0,83,0.00,,SKC,0.00,0.00,VWS V14.01,2013-05-16 09:09:00,
2013-05-16 03:15:00,44.9,39.8,29.57,South,176,3.0,4.0,82,0.00,,SKC,0.00,0.00,VWS V14.01,2013-05-16 09:15:00,
2013-05-16 03:21:00,44.4,39.3,29.59,South,177,0.0,3.0,82,0.00,,SKC,0.00,0.00,VWS V14.01,2013-05-16 09:21:00,
2013-05-16 03:27:00,44.1,39.3,29.58,South,176,0.0,3.0,83,0.00,,SKC,0.00,0.00,VWS V14.01,2013-05-16 09:27:00,
2013-05-16 03:30:00,45.7,40.8,29.54,South,175,2.0,5.0,83,0.00,,SKC,0.00,0.00,VWS V14.01,2013-05-16 09:30:00,
2013-05-16 03:33:00,43.7,38.9,29.59,South,176,0.0,3.0,83,0.00,,SKC,0.00,0.00,VWS V14.01,2013-05-16 09:33:00,
2013-05-16 03:40:00,43.3,38.5,29.59,South,176,0.0,3.0,83,0.00,,SKC,0.00,0.00,VWS V14.01,2013-05-16 09:40:00,
2013-05-16 03:45:00,45.8,40.9,29.53,South,175,2.0,6.0,83,0.00,,SKC,0.00,0.00,VWS V14.01,2013-05-16 09:45:00,
2013-05-16 03:46:00,43.0,38.5,29.59,South,176,0.0,3.0,84,0.00,,SKC,0.00,0.00,VWS V14.01,2013-05-16 09:46:00,
2013-05-16 03:52:00,42.8,38.6,29.58,South,176,0.0,2.0,85,0.00,,SKC,0.00,0.00,VWS V14.01,2013-05-16 09:52:00,
2013-05-16 03:58:00,42.6,38.4,29.58,South,176,0.0,2.0,85,0.00,,SKC,0.00,0.00,VWS V14.01,2013-05-16 09:58:00,
2013-05-16 04:00:00,45.3,40.1,29.53,South,175,4.0,4.0,82,0.00,,SKC,0.00,0.00,VWS V14.01,2013-05-16 10:00:00,
2013-05-16 04:04:00,42.3,38.1,29.60,South,176,0.0,3.0,85,0.00,,SKC,0.00,0.00,VWS V14.01,2013-05-16 10:04:00,
2013-05-16 04:10:00,42.1,37.9,29.60,South,176,0.0,3.0,85,0.00,,SKC,0.00,0.00,VWS V14.01,2013-05-16 10:10:00,
2013-05-16 04:15:00,44.9,39.8,29.57,South,176,2.0,4.0,82,0.00,,SKC,0.00,0.00,VWS V14.01,2013-05-16 10:15:00,
2013-05-16 04:16:00,41.8,37.6,29.60,South,176,0.0,3.0,85,0.00,,SKC,0.00,0.00,VWS V14.01,2013-05-16 10:16:00,
2013-05-16 04:22:00,41.5,37.3,29.60,South,176,0.0,1.0,85,0.00,,SKC,0.00,0.00,VWS V14.01,2013-05-16 10:22:00,
2013-05-16 04:28:00,41.2,37.0,29.61,South,176,0.0,1.0,85,0.00,,SKC,0.00,0.00,VWS V14.01,2013-05-16 10:28:00,
2013-05-16 04:30:00,43.9,39.1,29.58,South,176,0.0,3.0,83,0.00,,SKC,0.00,0.00,VWS V14.01,2013-05-16 10:30:00,
2013-05-16 04:34:00,40.9,37.0,29.61,South,176,0.0,0.0,86,0.00,,SKC,0.00,0.00,VWS V14.01,2013-05-16 10:34:00,
2013-05-16 04:40:00,40.6,36.8,29.61,South,176,0.0,0.0,86,0.00,,SKC,0.00,0.00,VWS V14.01,2013-05-16 10:40:00,
2013-05-16 04:45:00,43.0,38.5,29.59,South,176,0.0,3.0,84,0.00,,SKC,0.00,0.00,VWS V14.01,2013-05-16 10:45:00,
2013-05-16 04:46:00,40.4,36.5,29.61,South,176,0.0,0.0,86,0.00,,SKC,0.00,0.00,VWS V14.01,2013-05-16 10:46:00,
2013-05-16 04:52:00,40.2,36.7,29.61,South,176,1.0,4.0,87,0.00,,SKC,0.00,0.00,VWS V14.01,2013-05-16 10:52:00,
2013-05-16 04:58:00,40.0,36.5,29.61,South,176,2.0,4.0,87,0.00,,SKC,0.00,0.00,VWS V14.01,2013-05-16 10:58:00,
2013-05-16 05:00:00,42.4,38.2,29.58,South,176,0.0,2.0,85,0.00,,SKC,0.00,0.00,VWS V14.01,2013-05-16 11:00:00,
2013-05-16 05:04:00,40.0,37.0,29.62,South,177,3.0,4.0,89,0.00,,SKC,0.00,0.00,VWS V14.01,2013-05-16 11:04:00,
2013-05-16 05:10:00,40.1,37.1,29.62,South,176,0.0,4.0,89,0.00,,SKC,0.00,0.00,VWS V14.01,2013-05-16 11:10:00,
2013-05-16 05:15:00,41.8,37.6,29.60,South,176,0.0,3.0,85,0.00,,SKC,0.00,0.00,VWS V14.01,2013-05-16 11:15:00,
2013-05-16 05:16:00,40.1,37.1,29.62,South,176,3.0,4.0,89,0.00,,SKC,0.00,0.00,VWS V14.01,2013-05-16 11:16:00,
2013-05-16 05:22:00,40.2,37.5,29.62,South,176,1.0,5.0,90,0.00,,SKC,0.00,0.00,VWS V14.01,2013-05-16 11:22:00,
2013-05-16 05:28:00,40.4,37.7,29.62,South,176,2.0,5.0,90,0.00,,SKC,0.00,0.00,VWS V14.01,2013-05-16 11:28:00,
2013-05-16 05:30:00,41.1,36.9,29.61,South,176,0.0,1.0,85,0.00,,SKC,0.00,0.00,VWS V14.01,2013-05-16 11:30:00,
2013-05-16 05:34:00,40.5,37.8,29.62,South,176,4.0,4.0,90,0.00,,SKC,0.00,0.00,VWS V14.01,2013-05-16 11:34:00,
2013-05-16 05:40:00,40.5,37.5,29.62,South,176,3.0,4.0,89,0.00,,SKC,0.00,0.00,VWS V14.01,2013-05-16 11:40:00,
2013-05-16 05:45:00,40.4,36.5,29.61,South,176,0.0,0.0,86,0.00,,SKC,0.00,0.00,VWS V14.01,2013-05-16 11:45:00,
2013-05-16 05:46:00,40.5,37.5,29.62,South,177,1.0,4.0,89,0.00,,SKC,0.00,0.00,VWS V14.01,2013-05-16 11:46:00,
2013-05-16 05:52:00,40.5,37.5,29.62,South,177,0.0,2.0,89,0.00,,SKC,0.00,0.00,VWS V14.01,2013-05-16 11:52:00,
2013-05-16 05:58:00,40.5,37.5,29.63,South,176,3.0,3.0,89,0.00,,SKC,0.00,0.00,VWS V14.01,2013-05-16 11:58:00,
2013-05-16 06:00:00,39.9,36.6,29.61,South,176,2.0,4.0,88,0.00,,SKC,0.00,0.00,VWS V14.01,2013-05-16 12:00:00,
2013-05-16 06:04:00,40.5,37.5,29.66,South,176,0.0,2.0,89,0.00,,SKC,0.00,7.00,VWS V14.01,2013-05-16 12:04:00,
2013-05-16 06:10:00,40.4,37.4,29.66,South,176,2.0,2.0,89,0.00,,SKC,0.00,9.00,VWS V14.01,2013-05-16 12:10:00,
2013-05-16 06:15:00,40.1,37.1,29.62,South,176,3.0,4.0,89,0.00,,SKC,0.00,0.00,VWS V14.01,2013-05-16 12:15:00,
2013-05-16 06:16:00,40.2,36.9,29.66,South,176,0.0,2.0,88,0.00,,SKC,0.00,11.00,VWS V14.01,2013-05-16 12:16:00,
2013-05-16 06:21:00,40.2,36.9,29.66,South,176,0.0,0.0,88,0.00,,SKC,0.00,12.00,VWS V14.01,2013-05-16 12:21:00,
2013-05-16 06:27:00,40.0,36.7,29.67,South,176,1.0,2.0,88,0.00,,SKC,0.00,12.00,VWS V14.01,2013-05-16 12:27:00,
2013-05-16 06:30:00,40.4,37.7,29.62,South,176,2.0,5.0,90,0.00,,SKC,0.00,0.00,VWS V14.01,2013-05-16 12:30:00,
2013-05-16 06:33:00,39.9,36.6,29.67,South,176,0.0,0.0,88,0.00,,SKC,0.00,14.00,VWS V14.01,2013-05-16 12:33:00,
2013-05-16 06:39:00,39.7,36.4,29.67,South,176,0.0,2.0,88,0.00,,SKC,0.00,16.00,VWS V14.01,2013-05-16 12:39:00,
2013-05-16 06:45:00,39.5,36.2,29.68,South,176,0.0,2.0,88,0.00,,SKC,0.00,21.00,VWS V14.01,2013-05-16 12:45:00,
2013-05-16 06:52:00,39.4,36.4,29.69,South,176,0.0,0.0,89,0.00,,SKC,0.00,23.00,VWS V14.01,2013-05-16 12:52:00,
2013-05-16 06:58:00,39.2,36.2,29.69,South,176,1.0,2.0,89,0.00,,SKC,0.00,25.00,VWS V14.01,2013-05-16 12:58:00,
2013-05-16 07:00:00,40.5,37.5,29.63,South,176,1.0,4.0,89,0.00,,SKC,0.00,5.00,VWS V14.01,2013-05-16 13:00:00,
2013-05-16 07:04:00,39.0,36.0,29.71,South,176,0.0,0.0,89,0.00,,SKC,0.00,26.00,VWS V14.01,2013-05-16 13:04:00,
2013-05-16 07:10:00,39.0,36.0,29.71,South,177,0.0,0.0,89,0.00,,SKC,0.00,28.00,VWS V14.01,2013-05-16 13:10:00,
2013-05-16 07:15:00,40.2,36.9,29.66,South,176,0.0,2.0,88,0.00,,SKC,0.00,11.00,VWS V14.01,2013-05-16 13:15:00,
2013-05-16 07:16:00,38.9,36.2,29.71,South,176,0.0,0.0,90,0.00,,SKC,0.00,30.00,VWS V14.01,2013-05-16 13:16:00,
2013-05-16 07:22:00,39.0,36.3,29.71,South,176,0.0,0.0,90,0.00,,SKC,0.00,33.00,VWS V14.01,2013-05-16 13:22:00,
2013-05-16 07:28:00,39.0,36.3,29.71,South,176,0.0,3.0,90,0.00,,SKC,0.00,146.00,VWS V14.01,2013-05-16 13:28:00,
2013-05-16 07:30:00,39.9,36.6,29.67,South,176,0.0,2.0,88,0.00,,SKC,0.00,14.00,VWS V14.01,2013-05-16 13:30:00,
2013-05-16 07:34:00,39.2,36.8,29.70,South,176,0.0,1.0,91,0.00,,SKC,0.00,246.00,VWS V14.01,2013-05-16 13:34:00,
2013-05-16 07:40:00,40.0,37.9,29.69,South,176,0.0,1.0,92,0.00,,SKC,0.00,265.00,VWS V14.01,2013-05-16 13:40:00,
2013-05-16 07:45:00,39.5,36.2,29.68,South,176,0.0,2.0,88,0.00,,SKC,0.00,21.00,VWS V14.01,2013-05-16 13:45:00,
2013-05-16 07:46:00,41.0,38.9,29.69,South,176,0.0,1.0,92,0.00,,SKC,0.00,285.00,VWS V14.01,2013-05-16 13:46:00,
2013-05-16 07:52:00,41.9,39.8,29.67,South,176,0.0,5.0,92,0.00,,SKC,0.00,313.00,VWS V14.01,2013-05-16 13:52:00,
2013-05-16 07:58:00,43.1,40.9,29.67,South,177,1.0,5.0,92,0.00,,SKC,0.00,338.00,VWS V14.01,2013-05-16 13:58:00,
2013-05-16 08:00:00,39.1,36.1,29.71,South,176,0.0,2.0,89,0.00,,SKC,0.00,25.00,VWS V14.01,2013-05-16 14:00:00,
2013-05-16 08:04:00,44.1,41.4,29.67,South,176,0.0,2.0,90,0.00,,SKC,0.00,360.00,VWS V14.01,2013-05-16 14:04:00,
2013-05-16 08:10:00,45.1,41.5,29.67,South,176,0.0,2.0,87,0.00,,SKC,0.00,376.00,VWS V14.01,2013-05-16 14:10:00,
2013-05-16 08:15:00,38.9,36.2,29.71,South,176,0.0,0.0,90,0.00,,SKC,0.00,30.00,VWS V14.01,2013-05-16 14:15:00,
2013-05-16 08:16:00,46.5,41.9,29.66,South,176,0.0,2.0,84,0.00,,SKC,0.00,401.00,VWS V14.01,2013-05-16 14:16:00,
2013-05-16 08:22:00,47.9,41.7,29.64,South,176,2.0,3.0,79,0.00,,SKC,0.00,424.00,VWS V14.01,2013-05-16 14:22:00,
2013-05-16 08:28:00,49.1,41.2,29.64,South,176,0.0,3.0,74,0.00,,SKC,0.00,445.00,VWS V14.01,2013-05-16 14:28:00,
2013-05-16 08:30:00,39.1,36.4,29.71,South,177,1.0,3.0,90,0.00,,SKC,0.00,236.00,VWS V14.01,2013-05-16 14:30:00,
2013-05-16 08:34:00,50.1,41.1,29.62,South,176,1.0,3.0,71,0.00,,SKC,0.00,464.00,VWS V14.01,2013-05-16 14:34:00,
2013-05-16 08:40:00,50.9,40.3,29.63,South,176,0.0,3.0,67,0.00,,SKC,0.00,489.00,VWS V14.01,2013-05-16 14:40:00,
2013-05-16 08:45:00,41.0,38.9,29.69,South,176,0.0,1.0,92,0.00,,SKC,0.00,285.00,VWS V14.01,2013-05-16 14:45:00,
2013-05-16 08:46:00,51.8,41.6,29.61,South,176,0.0,3.0,68,0.00,,SKC,0.00,504.00,VWS V14.01,2013-05-16 14:46:00,
2013-05-16 08:52:00,53.3,42.2,29.61,ENE,72,3.0,3.0,66,0.00,,SKC,0.00,527.00,VWS V14.01,2013-05-16 14:52:00,
2013-05-16 08:58:00,54.2,42.3,29.59,ENE,67,4.0,4.0,64,0.00,,SKC,0.00,548.00,VWS V14.01,2013-05-16 14:58:00,
2013-05-16 09:00:00,43.6,41.2,29.67,South,176,0.0,5.0,91,0.00,,SKC,0.00,350.00,VWS V14.01,2013-05-16 15:00:00,
2013-05-16 09:04:00,55.5,42.7,29.61,East,82,1.0,3.0,62,0.00,,SKC,0.00,568.00,VWS V14.01,2013-05-16 15:04:00,
2013-05-16 09:10:00,56.5,43.7,29.61,NE,53,3.0,3.0,62,0.00,,SKC,0.00,585.00,VWS V14.01,2013-05-16 15:10:00,
2013-05-16 09:15:00,46.5,41.9,29.66,South,176,0.0,2.0,84,0.00,,SKC,0.00,401.00,VWS V14.01,2013-05-16 15:15:00,
2013-05-16 09:16:00,57.2,43.5,29.61,NE,48,2.0,5.0,60,0.00,,SKC,0.00,603.00,VWS V14.01,2013-05-16 15:16:00,
2013-05-16 09:22:00,57.6,43.4,29.60,NE,53,4.0,7.0,59,0.00,,SKC,0.00,621.00,VWS V14.01,2013-05-16 15:22:00,
2013-05-16 09:28:00,58.1,43.0,29.60,NNE,33,3.0,8.0,57,0.00,,SKC,0.00,640.00,VWS V14.01,2013-05-16 15:28:00,
2013-05-16 09:30:00,49.5,40.9,29.64,South,176,0.0,3.0,72,0.00,,SKC,0.00,457.00,VWS V14.01,2013-05-16 15:30:00,
2013-05-16 09:34:00,58.6,42.5,29.59,NE,36,2.0,8.0,55,0.00,,SKC,0.00,659.00,VWS V14.01,2013-05-16 15:34:00,
2013-05-16 09:40:00,59.3,42.7,29.59,NNE,25,1.0,8.0,54,0.00,,SKC,0.00,673.00,VWS V14.01,2013-05-16 15:40:00,
2013-05-16 09:45:00,51.8,41.6,29.61,South,176,0.0,3.0,68,0.00,,SKC,0.00,504.00,VWS V14.01,2013-05-16 15:45:00,
2013-05-16 09:46:00,60.5,43.8,29.58,NE,46,3.0,8.0,54,0.00,,SKC,0.00,694.00,VWS V14.01,2013-05-16 15:46:00,
2013-05-16 09:52:00,61.2,44.0,29.58,North,10,5.0,8.0,53,0.00,,SKC,0.00,712.00,VWS V14.01,2013-05-16 15:52:00,
2013-05-16 09:58:00,61.9,43.6,29.56,North,360,10.0,10.0,51,0.00,,SKC,0.00,726.00,VWS V14.01,2013-05-16 15:58:00,
2013-05-16 10:00:00,54.9,42.6,29.59,ENE,58,0.0,4.0,63,0.00,,SKC,0.00,555.00,VWS V14.01,2013-05-16 16:00:00,
2013-05-16 10:04:00,62.4,44.0,29.58,NE,39,1.0,9.0,51,0.00,,SKC,0.00,744.00,VWS V14.01,2013-05-16 16:04:00,
2013-05-16 10:10:00,62.9,45.0,29.57,NNE,19,0.0,10.0,52,0.00,,SKC,0.00,759.00,VWS V14.01,2013-05-16 16:10:00,
2013-05-16 10:15:00,57.2,43.5,29.61,NE,48,2.0,5.0,60,0.00,,SKC,0.00,603.00,VWS V14.01,2013-05-16 16:15:00,
2013-05-16 10:16:00,63.5,46.1,29.56,North,5,9.0,10.0,53,0.00,,SKC,0.00,775.00,VWS V14.01,2013-05-16 16:16:00,
2013-05-16 10:22:00,63.6,44.6,29.55,NE,44,5.0,10.0,50,0.00,,SKC,0.00,793.00,VWS V14.01,2013-05-16 16:22:00,
2013-05-16 10:28:00,64.0,44.5,29.55,NE,53,9.0,10.0,49,0.00,,SKC,0.00,812.00,VWS V14.01,2013-05-16 16:28:00,
2013-05-16 10:30:00,58.5,42.9,29.60,NE,49,3.0,8.0,56,0.00,,SKC,0.00,649.00,VWS V14.01,2013-05-16 16:30:00,
2013-05-16 10:34:00,64.7,45.7,29.55,NNE,22,3.0,7.0,50,0.00,,SKC,0.00,689.00,VWS V14.01,2013-05-16 16:34:00,
2013-05-16 10:41:00,66.1,44.7,29.53,ENE,57,5.0,7.0,46,0.00,,SKC,0.00,847.00,VWS V14.01,2013-05-16 16:41:00,
2013-05-16 10:45:00,60.5,43.8,29.58,NE,46,3.0,8.0,54,0.00,,SKC,0.00,694.00,VWS V14.01,2013-05-16 16:45:00,
2013-05-16 10:46:00,66.5,44.5,29.53,NNE,18,3.0,10.0,45,0.00,,SKC,0.00,882.00,VWS V14.01,2013-05-16 16:46:00,
2013-05-16 10:51:00,67.1,45.1,29.53,NE,40,6.0,10.0,45,0.00,,SKC,0.00,911.00,VWS V14.01,2013-05-16 16:51:00,
2013-05-16 10:57:00,67.6,44.9,29.51,NNE,32,7.0,11.0,44,0.00,,SKC,0.00,990.00,VWS V14.01,2013-05-16 16:57:00,
2013-05-16 11:00:00,62.1,43.8,29.55,NE,44,3.0,10.0,51,0.00,,SKC,0.00,735.00,VWS V14.01,2013-05-16 17:00:00,
2013-05-16 11:03:00,68.0,45.3,29.51,NE,41,7.0,10.0,44,0.00,,SKC,0.00,960.00,VWS V14.01,2013-05-16 17:03:00,
2013-05-16 11:09:00,68.1,45.4,29.51,NNE,33,9.0,10.0,44,0.00,,SKC,0.00,1034.00,VWS V14.01,2013-05-16 17:09:00,
2013-05-16 11:15:00,68.9,44.9,29.50,NE,38,2.0,11.0,42,0.00,,SKC,0.00,195.00,VWS V14.01,2013-05-16 17:15:00,
2013-05-16 11:21:00,68.0,44.1,29.51,NE,37,5.0,9.0,42,0.00,,SKC,0.00,281.00,VWS V14.01,2013-05-16 17:21:00,
2013-05-16 11:27:00,67.4,44.2,29.51,NE,34,6.0,9.0,43,0.00,,SKC,0.00,295.00,VWS V14.01,2013-05-16 17:27:00,
2013-05-16 11:30:00,64.1,44.6,29.55,NE,41,6.0,10.0,49,0.00,,SKC,0.00,800.00,VWS V14.01,2013-05-16 17:30:00,
2013-05-16 11:33:00,67.9,44.0,29.51,NW,317,0.0,7.0,42,0.00,,SKC,0.00,387.00,VWS V14.01,2013-05-16 17:33:00,
2013-05-16 11:39:00,68.2,44.9,29.50,ENE,72,3.0,12.0,43,0.00,,SKC,0.00,246.00,VWS V14.01,2013-05-16 17:39:00,
2013-05-16 11:45:00,67.4,45.3,29.51,NE,42,7.0,12.0,45,0.00,,SKC,0.00,265.00,VWS V14.01,2013-05-16 17:45:00,
2013-05-16 11:51:00,66.6,45.2,29.51,NNE,19,5.0,12.0,46,0.00,,SKC,0.00,269.00,VWS V14.01,2013-05-16 17:51:00,
2013-05-16 11:57:00,66.1,44.7,29.52,North,355,2.0,12.0,46,0.00,,SKC,0.00,264.00,VWS V14.01,2013-05-16 17:57:00,
2013-05-16 12:00:00,67.9,45.2,29.51,NE,36,6.0,11.0,44,0.00,,SKC,0.00,935.00,VWS V14.01,2013-05-16 18:00:00,
2013-05-16 12:03:00,66.0,44.7,29.54,NE,44,0.0,8.0,46,0.00,,SKC,0.00,295.00,VWS V14.01,2013-05-16 18:03:00,
2013-05-16 12:09:00,67.4,45.3,29.52,North,11,4.0,9.0,45,0.00,,SKC,0.00,527.00,VWS V14.01,2013-05-16 18:09:00,
2013-05-16 12:15:00,68.2,44.3,29.52,NNW,346,4.0,10.0,42,0.00,,SKC,0.00,366.00,VWS V14.01,2013-05-16 18:15:00,
2013-05-16 12:21:00,68.3,44.3,29.51,NNE,25,4.0,11.0,42,0.00,,SKC,0.00,362.00,VWS V14.01,2013-05-16 18:21:00,
2013-05-16 12:27:00,67.8,43.9,29.52,East,79,6.0,11.0,42,0.00,,SKC,0.00,357.00,VWS V14.01,2013-05-16 18:27:00,
2013-05-16 12:30:00,68.0,44.1,29.51,NE,39,7.0,11.0,42,0.00,,SKC,0.00,1179.00,VWS V14.01,2013-05-16 18:30:00,
2013-05-16 12:33:00,68.7,42.1,29.51,NE,44,1.0,5.0,38,0.00,,SKC,0.00,357.00,VWS V14.01,2013-05-16 18:33:00,
2013-05-16 12:39:00,70.6,37.7,29.51,SSE,154,0.0,9.0,30,0.00,,SKC,0.00,392.00,VWS V14.01,2013-05-16 18:39:00,
2013-05-16 12:45:00,71.9,38.0,29.50,South,183,8.0,16.0,29,0.00,,SKC,0.00,271.00,VWS V14.01,2013-05-16 18:45:00,
2013-05-16 12:51:00,71.8,39.6,29.50,SSE,150,4.0,15.0,31,0.00,,SKC,0.00,1188.00,VWS V14.01,2013-05-16 18:51:00,
2013-05-16 12:57:00,73.7,38.6,29.47,ESE,102,0.0,15.0,28,0.00,,SKC,0.00,1287.00,VWS V14.01,2013-05-16 18:57:00,
2013-05-16 13:00:00,66.0,44.7,29.52,North,10,0.0,12.0,46,0.00,,SKC,0.00,262.00,VWS V14.01,2013-05-16 19:00:00,
2013-05-16 13:03:00,74.2,37.1,29.48,SSW,207,4.0,12.0,26,0.00,,SKC,0.00,255.00,VWS V14.01,2013-05-16 19:03:00,
2013-05-16 13:10:00,72.1,37.2,29.49,South,178,11.0,21.0,28,0.00,,SKC,0.00,550.00,VWS V14.01,2013-05-16 19:10:00,
2013-05-16 13:15:00,68.1,44.2,29.52,North,355,4.0,10.0,42,0.00,,SKC,0.00,369.00,VWS V14.01,2013-05-16 19:15:00,
2013-05-16 13:16:00,71.8,37.9,29.49,SSE,168,16.0,21.0,29,0.00,,SKC,0.00,1093.00,VWS V14.01,2013-05-16 19:16:00,
2013-05-16 13:22:00,71.7,37.8,29.48,SE,141,10.0,16.0,29,0.00,,SKC,0.00,330.00,VWS V14.01,2013-05-16 19:22:00,
2013-05-16 13:28:00,71.6,36.8,29.47,South,183,6.0,16.0,28,0.00,,SKC,0.00,738.00,VWS V14.01,2013-05-16 19:28:00,
2013-05-16 13:30:00,68.0,43.5,29.52,NNE,15,3.0,11.0,41,0.00,,SKC,0.00,357.00,VWS V14.01,2013-05-16 19:30:00,
2013-05-16 13:35:00,72.8,36.0,29.48,SSE,152,9.0,16.0,26,0.00,,SKC,0.00,1095.00,VWS V14.01,2013-05-16 19:35:00,
2013-05-16 13:41:00,72.4,36.6,29.49,SSE,156,9.0,19.0,27,0.00,,SKC,0.00,193.00,VWS V14.01,2013-05-16 19:41:00,
2013-05-16 13:45:00,71.9,38.0,29.50,SE,145,7.0,16.0,29,0.00,,SKC,0.00,271.00,VWS V14.01,2013-05-16 19:45:00,
2013-05-16 13:47:00,71.2,36.5,29.52,West,269,0.0,3.0,28,0.00,,SKC,0.00,179.00,VWS V14.01,2013-05-16 19:47:00,
2013-05-16 13:53:00,70.0,35.4,29.50,ESE,114,0.0,6.0,28,0.00,,SKC,0.00,264.00,VWS V14.01,2013-05-16 19:53:00,
2013-05-16 13:59:00,69.7,36.9,29.50,ESE,111,5.0,6.0,30,0.00,,SKC,0.00,197.00,VWS V14.01,2013-05-16 19:59:00,
2013-05-16 14:00:00,74.4,37.3,29.48,SW,217,5.0,15.0,26,0.00,,SKC,0.00,244.00,VWS V14.01,2013-05-16 20:00:00,
2013-05-16 14:06:00,69.4,36.7,29.52,East,94,0.0,6.0,30,0.00,,SKC,0.00,153.00,VWS V14.01,2013-05-16 20:06:00,
2013-05-16 14:12:00,68.9,36.2,29.54,SSE,168,5.0,12.0,30,0.00,,SKC,0.00,135.00,VWS V14.01,2013-05-16 20:12:00,
2013-05-16 14:15:00,71.8,37.9,29.49,SSE,168,16.0,21.0,29,0.00,,SKC,0.00,1093.00,VWS V14.01,2013-05-16 20:15:00,
2013-05-16 14:18:00,68.0,37.1,29.55,SW,214,10.0,10.0,32,0.00,,SKC,0.00,183.00,VWS V14.01,2013-05-16 20:18:00,
2013-05-16 14:24:00,67.3,38.7,29.53,NNE,27,4.0,14.0,35,0.00,,SKC,0.00,448.00,VWS V14.01,2013-05-16 20:24:00,
2013-05-16 14:30:00,67.2,38.7,29.54,NE,51,1.0,14.0,35,0.00,,SKC,0.00,299.00,VWS V14.01,2013-05-16 20:30:00,
2013-05-16 14:36:00,67.3,38.7,29.54,NE,51,2.0,3.0,35,0.00,,SKC,0.00,188.00,VWS V14.01,2013-05-16 20:36:00,
2013-05-16 14:42:00,67.3,37.2,29.54,NNW,341,0.0,14.0,33,0.00,,SKC,0.00,183.00,VWS V14.01,2013-05-16 20:42:00,
2013-05-16 14:45:00,71.3,35.6,29.51,SSE,153,1.0,19.0,27,0.00,,SKC,0.00,160.00,VWS V14.01,2013-05-16 20:45:00,
2013-05-16 14:49:00,67.6,37.5,29.53,SSE,167,6.0,6.0,33,0.00,,SKC,0.00,267.00,VWS V14.01,2013-05-16 20:49:00,
2013-05-16 14:55:00,67.9,37.0,29.53,SSW,205,5.0,13.0,32,0.00,,SKC,0.00,251.00,VWS V14.01,2013-05-16 20:55:00,
2013-05-16 15:00:00,69.7,36.9,29.52,ESE,111,4.0,6.0,30,0.00,,SKC,0.00,174.00,VWS V14.01,2013-05-16 21:00:00,
2013-05-16 15:01:00,68.4,34.9,29.51,South,171,8.0,16.0,29,0.00,,SKC,0.00,341.00,VWS V14.01,2013-05-16 21:01:00,
2013-05-16 15:07:00,69.4,36.7,29.52,SE,136,4.0,9.0,30,0.00,,SKC,0.00,408.00,VWS V14.01,2013-05-16 21:07:00,
2013-05-16 15:14:00,73.0,36.1,29.49,SSE,148,3.0,9.0,26,0.00,,SKC,0.00,1051.00,VWS V14.01,2013-05-16 21:14:00,
2013-05-16 15:15:00,68.1,36.3,29.56,WSW,252,3.0,18.0,31,0.00,,SKC,0.00,165.00,VWS V14.01,2013-05-16 21:15:00,
2013-05-16 15:20:00,74.6,36.5,29.47,East,101,1.0,11.0,25,0.00,,SKC,0.00,1014.00,VWS V14.01,2013-05-16 21:20:00,
2013-05-16 15:26:00,74.8,37.7,29.47,SE,141,0.0,11.0,26,0.00,,SKC,0.00,343.00,VWS V14.01,2013-05-16 21:26:00,
2013-05-16 15:30:00,67.2,40.8,29.54,NE,51,0.0,14.0,38,0.00,,SKC,0.00,278.00,VWS V14.01,2013-05-16 21:30:00,
2013-05-16 15:31:00,74.7,36.6,29.47,ENE,75,0.0,11.0,25,0.00,,SKC,0.00,930.00,VWS V14.01,2013-05-16 21:31:00,
2013-05-16 15:36:00,74.9,38.7,29.46,NNW,341,12.0,15.0,27,0.00,,SKC,0.00,1072.00,VWS V14.01,2013-05-16 21:36:00,
2013-05-16 15:42:00,74.0,35.0,29.47,ENE,57,1.0,15.0,24,0.00,,SKC,0.00,320.00,VWS V14.01,2013-05-16 21:42:00,
2013-05-16 15:45:00,67.6,39.0,29.54,South,169,5.0,14.0,35,0.00,,SKC,0.00,251.00,VWS V14.01,2013-05-16 21:45:00,
2013-05-16 15:48:00,73.3,35.4,29.47,SSW,206,4.0,9.0,25,0.00,,SKC,0.00,962.00,VWS V14.01,2013-05-16 21:48:00,
2013-05-16 15:54:00,73.5,35.6,29.45,SW,217,0.0,9.0,25,0.00,,SKC,0.00,163.00,VWS V14.01,2013-05-16 21:54:00,
2013-05-16 16:00:00,73.3,35.4,29.47,SW,217,0.0,9.0,25,0.00,,SKC,0.00,134.00,VWS V14.01,2013-05-16 22:00:00,
2013-05-16 16:06:00,72.9,36.0,29.48,SW,217,0.0,1.0,26,0.00,,SKC,0.00,125.00,VWS V14.01,2013-05-16 22:06:00,
2013-05-16 16:13:00,72.3,36.5,29.48,North,355,2.0,7.0,27,0.00,,SKC,0.00,169.00,VWS V14.01,2013-05-16 22:13:00,
2013-05-16 16:15:00,73.4,36.5,29.49,SE,146,1.0,9.0,26,0.00,,SKC,0.00,1025.00,VWS V14.01,2013-05-16 22:15:00,
2013-05-16 16:19:00,71.6,35.9,29.49,NNE,28,1.0,10.0,27,0.00,,SKC,0.00,253.00,VWS V14.01,2013-05-16 22:19:00,
2013-05-16 16:25:00,72.0,37.1,29.48,NE,40,2.0,10.0,28,0.00,,SKC,0.00,374.00,VWS V14.01,2013-05-16 22:25:00,
2013-05-16 16:30:00,74.7,36.6,29.47,ENE,75,0.0,11.0,25,0.00,,SKC,0.00,930.00,VWS V14.01,2013-05-16 22:30:00,
2013-05-16 16:31:00,73.6,37.6,29.47,NNE,29,1.0,10.0,27,0.00,,SKC,0.00,737.00,VWS V14.01,2013-05-16 22:31:00,
2013-05-16 16:37:00,74.3,38.2,29.46,NNE,29,0.0,3.0,27,0.00,,SKC,0.00,327.00,VWS V14.01,2013-05-16 22:37:00,
2013-05-16 16:43:00,73.9,37.8,29.46,NNE,29,0.0,3.0,27,0.00,,SKC,0.00,250.00,VWS V14.01,2013-05-16 22:43:00,
2013-05-16 16:45:00,73.5,35.6,29.46,South,184,5.0,15.0,25,0.00,,SKC,0.00,953.00,VWS V14.01,2013-05-16 22:45:00,
2013-05-16 16:49:00,73.6,35.6,29.46,NNE,29,0.0,2.0,25,0.00,,SKC,0.00,239.00,VWS V14.01,2013-05-16 22:49:00,
2013-05-16 16:55:00,73.2,35.3,29.47,NNE,29,0.0,4.0,25,0.00,,SKC,0.00,341.00,VWS V14.01,2013-05-16 22:55:00,
2013-05-16 17:00:00,73.2,35.3,29.48,SW,217,0.0,9.0,25,0.00,,SKC,0.00,127.00,VWS V14.01,2013-05-16 23:00:00,
2013-05-16 17:01:00,73.7,36.7,29.45,NNE,29,0.0,4.0,26,0.00,,SKC,0.00,594.00,VWS V14.01,2013-05-16 23:01:00,
2013-05-16 17:06:00,74.2,37.1,29.45,NNE,29,1.0,3.0,26,0.00,,SKC,0.00,527.00,VWS V14.01,2013-05-16 23:06:00,
2013-05-16 17:12:00,73.9,36.9,29.45,North,360,0.0,5.0,26,0.00,,SKC,0.00,206.00,VWS V14.01,2013-05-16 23:12:00,
2013-05-16 17:15:00,71.9,37.1,29.48,NNE,14,6.0,12.0,28,0.00,,SKC,0.00,188.00,VWS V14.01,2013-05-16 23:15:00,
2013-05-16 17:18:00,73.3,36.4,29.45,North,5,0.0,3.0,26,0.00,,SKC,0.00,399.00,VWS V14.01,2013-05-16 23:18:00,
2013-05-16 17:25:00,73.1,38.1,29.44,North,360,0.0,3.0,28,0.00,,SKC,0.00,415.00,VWS V14.01,2013-05-16 23:25:00,
2013-05-16 17:30:00,73.7,37.7,29.47,NNE,29,0.0,10.0,27,0.00,,SKC,0.00,737.00,VWS V14.01,2013-05-16 23:30:00,
2013-05-16 17:31:00,73.4,37.4,29.45,North,5,0.0,3.0,27,0.00,,SKC,0.00,650.00,VWS V14.01,2013-05-16 23:31:00,
2013-05-16 17:37:00,74.4,37.3,29.45,North,355,1.0,5.0,26,0.00,,SKC,0.00,540.00,VWS V14.01,2013-05-16 23:37:00,
2013-05-16 17:43:00,75.0,36.8,29.43,North,11,3.0,7.0,25,0.00,,SKC,0.00,577.00,VWS V14.01,2013-05-16 23:43:00,
2013-05-16 17:45:00,73.8,35.8,29.46,NNE,29,0.0,3.0,25,0.00,,SKC,0.00,237.00,VWS V14.01,2013-05-16 23:45:00,
2013-05-16 17:49:00,75.0,37.8,29.43,ENE,69,0.0,3.0,26,0.00,,SKC,0.00,332.00,VWS V14.01,2013-05-16 23:49:00,
2013-05-16 17:56:00,75.0,37.8,29.43,West,270,2.0,5.0,26,0.00,,SKC,0.00,243.00,VWS V14.01,2013-05-16 23:56:00,
2013-05-16 18:00:00,73.7,36.7,29.45,NNE,29,0.0,4.0,26,0.00,,SKC,0.00,594.00,VWS V14.01,2013-05-17 00:00:00,
2013-05-16 18:01:00,74.7,37.6,29.42,WSW,241,0.0,5.0,26,0.00,,SKC,0.00,271.00,VWS V14.01,2013-05-17 00:01:00,
2013-05-16 18:07:00,74.1,37.1,29.45,North,5,1.0,2.0,26,0.00,,SKC,0.00,264.00,VWS V14.01,2013-05-17 00:07:00,
2013-05-16 18:13:00,73.7,36.7,29.45,NE,41,0.0,4.0,26,0.00,,SKC,0.00,323.00,VWS V14.01,2013-05-17 00:13:00,
2013-05-16 18:15:00,73.6,36.6,29.44,North,360,3.0,6.0,26,0.00,,SKC,0.00,218.00,VWS V14.01,2013-05-17 00:15:00,
2013-05-16 18:19:00,73.5,39.3,29.45,North,355,0.0,1.0,29,0.00,,SKC,0.00,167.00,VWS V14.01,2013-05-17 00:19:00,
2013-05-16 18:25:00,73.3,37.3,29.45,North,355,0.0,3.0,27,0.00,,SKC,0.00,128.00,VWS V14.01,2013-05-17 00:25:00,
2013-05-16 18:30:00,73.5,37.5,29.45,North,360,0.0,3.0,27,0.00,,SKC,0.00,650.00,VWS V14.01,2013-05-17 00:30:00,
2013-05-16 18:31:00,73.2,38.2,29.45,North,355,0.0,3.0,28,0.00,,SKC,0.00,109.00,VWS V14.01,2013-05-17 00:31:00,
2013-05-16 18:37:00,73.0,38.9,29.45,North,355,0.0,0.0,29,0.00,,SKC,0.00,130.00,VWS V14.01,2013-05-17 00:37:00,
2013-05-16 18:43:00,72.6,39.4,29.45,SSE,157,2.0,4.0,30,0.00,,SKC,0.00,123.00,VWS V14.01,2013-05-17 00:43:00,
2013-05-16 18:45:00,75.0,37.8,29.43,NNE,29,0.0,7.0,26,0.00,,SKC,0.00,497.00,VWS V14.01,2013-05-17 00:45:00,
2013-05-16 18:50:00,72.3,36.5,29.46,South,176,4.0,10.0,27,0.00,,SKC,0.00,90.00,VWS V14.01,2013-05-17 00:50:00,
2013-05-16 18:56:00,72.0,33.3,29.46,South,178,4.0,12.0,24,0.00,,SKC,0.00,69.00,VWS V14.01,2013-05-17 00:56:00,
2013-05-16 19:00:00,74.6,37.5,29.42,West,269,1.0,5.0,26,0.00,,SKC,0.00,306.00,VWS V14.01,2013-05-17 01:00:00,
2013-05-16 19:01:00,71.7,34.0,29.46,SSW,198,4.0,12.0,25,0.00,,SKC,0.00,58.00,VWS V14.01,2013-05-17 01:01:00,
2013-05-16 19:07:00,71.4,32.8,29.42,SW,219,2.0,9.0,24,0.00,,SKC,0.00,42.00,VWS V14.01,2013-05-17 01:07:00,
2013-05-16 19:13:00,71.2,33.6,29.44,WSW,238,0.0,9.0,25,0.00,,SKC,0.00,30.00,VWS V14.01,2013-05-17 01:13:00,
2013-05-16 19:15:00,73.6,36.6,29.45,North,355,1.0,4.0,26,0.00,,SKC,0.00,237.00,VWS V14.01,2013-05-17 01:15:00,
2013-05-16 19:19:00,70.7,34.2,29.44,SW,232,0.0,4.0,26,0.00,,SKC,0.00,28.00,VWS V14.01,2013-05-17 01:19:00,
2013-05-16 19:24:00,70.4,33.9,29.44,SW,234,4.0,4.0,26,0.00,,SKC,0.00,26.00,VWS V14.01,2013-05-17 01:24:00,
2013-05-16 19:30:00,69.9,34.4,29.44,SW,235,2.0,7.0,27,0.00,,SKC,0.00,23.00,VWS V14.01,2013-05-17 01:30:00,
2013-05-16 19:37:00,69.4,34.0,29.45,WSW,256,0.0,5.0,27,0.00,,SKC,0.00,19.00,VWS V14.01,2013-05-17 01:37:00,
2013-05-16 19:43:00,68.9,33.6,29.47,SSW,207,9.0,10.0,27,0.00,,SKC,0.00,16.00,VWS V14.01,2013-05-17 01:43:00,
2013-05-16 19:45:00,72.5,37.6,29.45,SSE,157,5.0,5.0,28,0.00,,SKC,0.00,114.00,VWS V14.01,2013-05-17 01:45:00,
2013-05-16 19:49:00,68.8,33.5,29.48,SSE,167,0.0,6.0,27,0.00,,SKC,0.00,12.00,VWS V14.01,2013-05-17 01:49:00,
2013-05-16 19:54:00,68.6,34.2,29.48,SW,223,4.0,6.0,28,0.00,,SKC,0.00,9.00,VWS V14.01,2013-05-17 01:54:00,
2013-05-16 20:00:00,68.4,34.9,29.49,SW,223,0.0,6.0,29,0.00,,SKC,0.00,7.00,VWS V14.01,2013-05-17 02:00:00,
2013-05-16 20:06:00,68.0,34.6,29.42,SSW,213,6.0,6.0,29,0.00,,SKC,0.00,9.00,VWS V14.01,2013-05-17 02:06:00,
2013-05-16 20:12:00,67.5,34.2,29.42,South,191,9.0,9.0,29,0.00,,SKC,0.00,0.00,VWS V14.01,2013-05-17 02:12:00,
2013-05-16 20:15:00,71.0,33.4,29.44,WSW,248,2.0,9.0,25,0.00,,SKC,0.00,30.00,VWS V14.01,2013-05-17 02:15:00,
2013-05-16 20:18:00,67.3,34.8,29.42,West,261,1.0,4.0,30,0.00,,SKC,0.00,0.00,VWS V14.01,2013-05-17 02:18:00,
2013-05-16 20:24:00,67.1,33.8,29.42,West,262,2.0,4.0,29,0.00,,SKC,0.00,0.00,VWS V14.01,2013-05-17 02:24:00,
2013-05-16 20:30:00,66.7,35.1,29.42,SW,219,5.0,5.0,31,0.00,,SKC,0.00,0.00,VWS V14.01,2013-05-17 02:30:00,
2013-05-16 20:36:00,66.1,34.6,29.43,SW,216,6.0,7.0,31,0.00,,SKC,0.00,0.00,VWS V14.01,2013-05-17 02:36:00,
2013-05-16 20:42:00,65.4,37.1,29.43,South,188,6.0,7.0,35,0.00,,SKC,0.00,0.00,VWS V14.01,2013-05-17 02:42:00,
2013-05-16 20:45:00,68.9,33.6,29.48,SW,229,3.0,10.0,27,0.00,,SKC,0.00,12.00,VWS V14.01,2013-05-17 02:45:00,
2013-05-16 20:48:00,64.6,34.9,29.43,SSE,159,3.0,4.0,33,0.00,,SKC,0.00,0.00,VWS V14.01,2013-05-17 02:48:00,
2013-05-16 20:54:00,64.0,35.1,29.44,SSW,196,5.0,6.0,34,0.00,,SKC,0.00,0.00,VWS V14.01,2013-05-17 02:54:00,
2013-05-16 21:00:00,63.4,34.6,29.45,SW,236,4.0,7.0,34,0.00,,SKC,0.00,0.00,VWS V14.01,2013-05-17 03:00:00,
2013-05-16 21:06:00,63.2,33.6,29.41,SW,214,5.0,9.0,33,0.00,,SKC,0.00,0.00,VWS V14.01,2013-05-17 03:06:00,
2013-05-16 21:13:00,63.1,34.3,29.41,SSW,206,5.0,11.0,34,0.00,,SKC,0.00,0.00,VWS V14.01,2013-05-17 03:13:00,
2013-05-16 21:15:00,67.3,34.0,29.42,South,190,3.0,10.0,29,0.00,,SKC,0.00,0.00,VWS V14.01,2013-05-17 03:15:00,
2013-05-16 21:19:00,63.4,34.6,29.41,SSW,209,9.0,12.0,34,0.00,,SKC,0.00,0.00,VWS V14.01,2013-05-17 03:19:00,
2013-05-16 21:25:00,63.8,34.2,29.41,SW,215,10.0,14.0,33,0.00,,SKC,0.00,0.00,VWS V14.01,2013-05-17 03:25:00,
2013-05-16 21:30:00,66.6,35.0,29.42,SW,217,4.0,5.0,31,0.00,,SKC,0.00,0.00,VWS V14.01,2013-05-17 03:30:00,
2013-05-16 21:31:00,63.8,34.2,29.40,South,186,12.0,14.0,33,0.00,,SKC,0.00,0.00,VWS V14.01,2013-05-17 03:31:00,
2013-05-16 21:37:00,63.6,34.0,29.40,SW,222,7.0,14.0,33,0.00,,SKC,0.00,0.00,VWS V14.01,2013-05-17 03:37:00,
2013-05-16 21:43:00,63.4,34.6,29.42,SSW,201,4.0,14.0,34,0.00,,SKC,0.00,0.00,VWS V14.01,2013-05-17 03:43:00,
2013-05-16 21:45:00,64.8,35.0,29.43,SSE,159,3.0,7.0,33,0.00,,SKC,0.00,0.00,VWS V14.01,2013-05-17 03:45:00,
2013-05-16 21:49:00,63.1,34.3,29.42,SSW,211,6.0,11.0,34,0.00,,SKC,0.00,0.00,VWS V14.01,2013-05-17 03:49:00,
2013-05-16 21:55:00,62.8,34.0,29.42,SW,229,5.0,12.0,34,0.00,,SKC,0.00,0.00,VWS V14.01,2013-05-17 03:55:00,
2013-05-16 22:00:00,63.4,34.6,29.45,SW,221,7.0,7.0,34,0.00,,SKC,0.00,0.00,VWS V14.01,2013-05-17 04:00:00,
2013-05-16 22:01:00,62.4,34.4,29.42,SSW,205,11.0,12.0,35,0.00,,SKC,0.00,0.00,VWS V14.01,2013-05-17 04:01:00,
2013-05-16 22:02:00,62.4,34.4,29.38,South,184,5.0,11.0,35,0.00,,SKC,0.00,0.00,VWS V14.01,2013-05-17 04:02:00,
2013-05-16 22:08:00,61.9,34.7,29.39,SSE,161,4.0,11.0,36,0.00,,SKC,0.00,0.00,VWS V14.01,2013-05-17 04:08:00,
2013-05-16 22:10:00,61.7,35.2,29.39,SSE,165,5.0,11.0,37,0.00,,SKC,0.00,0.00,VWS V14.01,2013-05-17 04:10:00,
2013-05-16 22:14:00,61.1,35.3,29.40,SE,138,5.0,11.0,38,0.00,,SKC,0.00,0.00,VWS V14.01,2013-05-17 04:14:00,
2013-05-16 22:15:00,63.2,34.4,29.41,SSW,202,10.0,14.0,34,0.00,,SKC,0.00,0.00,VWS V14.01,2013-05-17 04:15:00,
2013-05-16 22:21:00,60.3,34.6,29.40,SSE,165,2.0,6.0,38,0.00,,SKC,0.00,0.00,VWS V14.01,2013-05-17 04:21:00,
2013-05-16 22:27:00,59.6,34.6,29.40,South,190,4.0,7.0,39,0.00,,SKC,0.00,0.00,VWS V14.01,2013-05-17 04:27:00,
2013-05-16 22:30:00,63.8,34.2,29.40,SSW,207,7.0,14.0,33,0.00,,SKC,0.00,0.00,VWS V14.01,2013-05-17 04:30:00,
2013-05-16 22:33:00,59.0,34.7,29.42,South,184,3.0,5.0,40,0.00,,SKC,0.00,0.00,VWS V14.01,2013-05-17 04:33:00,
2013-05-16 22:39:00,58.9,34.6,29.42,SSE,153,4.0,7.0,40,0.00,,SKC,0.00,0.00,VWS V14.01,2013-05-17 04:39:00,
2013-05-16 22:45:00,58.5,35.5,29.41,SSW,198,1.0,7.0,42,0.00,,SKC,0.00,0.00,VWS V14.01,2013-05-17 04:45:00,
2013-05-16 22:51:00,58.0,35.1,29.41,South,178,3.0,6.0,42,0.00,,SKC,0.00,0.00,VWS V14.01,2013-05-17 04:51:00,
2013-05-16 22:57:00,57.6,34.7,29.41,SSE,148,4.0,9.0,42,0.00,,SKC,0.00,0.00,VWS V14.01,2013-05-17 04:57:00,
2013-05-16 23:00:00,62.4,34.4,29.42,SSW,205,11.0,12.0,35,0.00,,SKC,0.00,0.00,VWS V14.01,2013-05-17 05:00:00,
2013-05-16 23:03:00,57.4,35.1,29.43,SE,131,3.0,5.0,43,0.00,,SKC,0.00,0.00,VWS V14.01,2013-05-17 05:03:00,
2013-05-16 23:09:00,57.1,34.8,29.43,SSE,148,3.0,7.0,43,0.00,,SKC,0.00,0.00,VWS V14.01,2013-05-17 05:09:00,
2013-05-16 23:15:00,56.9,34.7,29.44,SSW,198,6.0,8.0,43,0.00,,SKC,0.00,0.00,VWS V14.01,2013-05-17 05:15:00,
2013-05-16 23:21:00,56.8,34.6,29.43,SE,127,3.0,6.0,43,0.00,,SKC,0.00,0.00,VWS V14.01,2013-05-17 05:21:00,
2013-05-16 23:27:00,56.7,34.5,29.43,ESE,109,1.0,8.0,43,0.00,,SKC,0.00,0.00,VWS V14.01,2013-05-17 05:27:00,
2013-05-16 23:30:00,59.1,34.8,29.42,SSW,204,4.0,7.0,40,0.00,,SKC,0.00,0.00,VWS V14.01,2013-05-17 05:30:00,
2013-05-16 23:33:00,56.7,34.5,29.43,South,182,5.0,8.0,43,0.00,,SKC,0.00,0.00,VWS V14.01,2013-05-17 05:33:00,
2013-05-16 23:39:00,56.6,34.4,29.43,SSE,158,2.0,8.0,43,0.00,,SKC,0.00,0.00,VWS V14.01,2013-05-17 05:39:00,
2013-05-16 23:45:00,56.5,34.3,29.43,SE,126,0.0,8.0,43,0.00,,SKC,0.00,0.00,VWS V14.01,2013-05-17 05:45:00,
2013-05-16 23:50:00,56.3,33.5,29.43,SE,125,0.0,7.0,42,0.00,,SKC,0.00,0.00,VWS V14.01,2013-05-17 05:50:00,
2013-05-16 23:56:00,56.1,33.9,29.44,SE,136,3.0,7.0,43,0.00,,SKC,0.00,0.00,VWS V14.01,2013-05-17 05:56:00,